R.l. Enterkin — WDD9628 — position and weather

sailwx.info

Track history (hours):
 
Tides and Currents Weather Stations Pressure Air Temp Water Temp Dewpoint Dewpoint Depression Visibility Wind Speed Wind Dir Waves Ship Positions

R.l. Enterkin

Owner: Great Lakes Dredge & Dock Company, LLC., Oak Brook, IL. More information available from US FCC via Universal Licensing System and Coast Guard Vessel Documentation Center.

Last reported at 2016-Aug-25 09:10 UTC. Time now 2016-Sep-25 19:07 UTC.
Position N 32°05' W 080°38'.
Warning: this ship's position is 31 days out of date.

MMSI: 367314080.

Date/timePositionNaut miles runAvg speedWind from/ knotsBaromVisibWave heightAir tempDewpointWater temp
2016-Aug-25 09:10N 32°05' W 080°38'5 7.8
2016-Aug-25 08:33N 32°02' W 080°43'6 5.9
2016-Aug-25 07:33N 32°02' W 080°50'3 3.3
2016-Aug-25 06:33N 32°01' W 080°53'0 0.0
2016-Aug-25 04:33N 32°01' W 080°53'0 0.1
2016-Aug-25 03:33N 32°01' W 080°53'0 0.0
2016-Aug-25 02:33N 32°01' W 080°53'0 0.0
2016-Aug-25 01:33N 32°01' W 080°53'0 0.0
2016-Aug-25 00:31N 32°01' W 080°53'0 0.0
2016-Aug-24 23:33N 32°01' W 080°53'0 0.5
2016-Aug-24 22:34N 32°01' W 080°53'0 0.3
2016-Aug-24 21:34N 32°01' W 080°53'0 0.0
2016-Aug-24 20:33N 32°01' W 080°53'0 0.4
2016-Aug-24 19:34N 32°01' W 080°53'0 0.1
2016-Aug-24 18:33N 32°01' W 080°53'0 0.0
2016-Aug-24 17:33N 32°01' W 080°53'0 0.0
2016-Aug-24 16:33N 32°01' W 080°53'0 0.0
2016-Aug-24 15:33N 32°01' W 080°53'0 0.0
2016-Aug-24 14:33N 32°01' W 080°53'0 0.0
2016-Aug-24 13:33N 32°01' W 080°53'0 0.0
2016-Aug-24 12:33N 32°01' W 080°53'0 0.0
2016-Aug-24 11:30N 32°01' W 080°53'0 0.0
2016-Aug-24 10:31N 32°01' W 080°53'0 0.0
2016-Aug-24 09:32N 32°01' W 080°53'0 0.0
2016-Aug-24 08:32N 32°01' W 080°53'0 0.0
2016-Aug-24 07:13N 32°01' W 080°53'0 0.0
2016-Aug-24 06:29N 32°01' W 080°53'0 0.0
2016-Aug-24 04:33N 32°01' W 080°53'0 0.0
2016-Aug-24 03:33N 32°01' W 080°53'0 0.0
2016-Aug-24 02:33N 32°01' W 080°53'0 0.0
2016-Aug-24 01:33N 32°01' W 080°53'0 0.0
2016-Aug-24 00:33N 32°01' W 080°53'0 0.0
2016-Aug-23 23:33N 32°01' W 080°53'0 0.0
2016-Aug-23 22:32N 32°01' W 080°53'0 0.0
2016-Aug-23 21:33N 32°01' W 080°53'0 0.0
2016-Aug-23 20:33N 32°01' W 080°53'0 0.0
2016-Aug-23 19:33N 32°01' W 080°53'0 0.0
2016-Aug-23 18:33N 32°01' W 080°53'0 0.0
2016-Aug-23 17:34N 32°01' W 080°53'0 0.1
2016-Aug-23 16:33N 32°01' W 080°53'0 0.0
2016-Aug-23 15:33N 32°01' W 080°53'1 1.3
2016-Aug-23 14:33N 32°01' W 080°52'1 1.4
2016-Aug-23 13:33N 32°02' W 080°51'2 1.5
2016-Aug-23 12:33N 32°01' W 080°52'1 1.1
2016-Aug-23 11:33N 32°01' W 080°53'0 0.0
2016-Aug-23 10:33N 32°01' W 080°53'0 0.4
2016-Aug-23 09:33N 32°01' W 080°53'0 0.4
2016-Aug-23 08:33N 32°01' W 080°53'0 0.0
2016-Aug-23 07:33N 32°01' W 080°53'0 0.0
2016-Aug-23 06:33N 32°01' W 080°53'0 0.0
2016-Aug-23 05:33N 32°01' W 080°53'0 0.0
2016-Aug-23 04:33N 32°01' W 080°53'0 0.0
2016-Aug-23 03:33N 32°01' W 080°53'0 0.0
2016-Aug-23 02:33N 32°01' W 080°53'0 0.0
2016-Aug-23 01:33N 32°01' W 080°53'0 0.0
2016-Aug-23 00:33N 32°01' W 080°53'0 0.4
2016-Aug-22 23:33N 32°01' W 080°53'0 0.0
2016-Aug-22 22:33N 32°01' W 080°53'0 0.0
2016-Aug-22 21:33N 32°01' W 080°53'0 0.0
2016-Aug-22 20:33N 32°01' W 080°53'0 0.0
2016-Aug-22 19:34N 32°01' W 080°53'0 0.4
2016-Aug-22 18:33N 32°01' W 080°53'0 0.0
2016-Aug-22 17:33N 32°01' W 080°53'0 0.0
2016-Aug-22 16:33N 32°01' W 080°53'0 0.0
2016-Aug-22 15:33N 32°01' W 080°53'0 0.4
2016-Aug-22 14:33N 32°01' W 080°53'0 0.3
2016-Aug-22 13:33N 32°01' W 080°53'0 0.0
2016-Aug-22 12:33N 32°01' W 080°53'0 0.2
2016-Aug-22 11:33N 32°01' W 080°53'0 0.4
2016-Aug-22 10:33N 32°01' W 080°53'0 0.4
2016-Aug-22 09:33N 32°01' W 080°53'0 0.3
2016-Aug-22 08:34N 32°01' W 080°53'0 0.0
2016-Aug-22 07:33N 32°01' W 080°53'0 0.0
2016-Aug-22 06:34N 32°01' W 080°53'0 0.0
2016-Aug-22 05:33N 32°01' W 080°53'0 0.0
2016-Aug-22 04:33N 32°01' W 080°53'0 0.0
2016-Aug-22 03:34N 32°01' W 080°53'0 0.0
2016-Aug-22 02:34N 32°01' W 080°53'0 0.0
2016-Aug-22 01:33N 32°01' W 080°53'0 0.0
2016-Aug-22 00:33N 32°01' W 080°53'0 0.0
2016-Aug-21 23:33N 32°01' W 080°53'0 0.3
2016-Aug-21 22:33N 32°01' W 080°53'0 0.0
2016-Aug-21 21:33N 32°01' W 080°53'0 0.0
2016-Aug-21 20:33N 32°01' W 080°53'0 0.0
2016-Aug-21 19:33N 32°01' W 080°53'0 0.4
2016-Aug-21 18:33N 32°01' W 080°53'0 0.4
2016-Aug-21 17:33N 32°01' W 080°53'0 0.3
2016-Aug-21 16:33N 32°01' W 080°53'0 0.1
2016-Aug-21 15:34N 32°01' W 080°53'0 0.0
2016-Aug-21 14:33N 32°01' W 080°53'0 0.0
2016-Aug-21 13:33N 32°01' W 080°53'0 0.0
2016-Aug-21 12:33N 32°01' W 080°53'0 0.4
2016-Aug-21 11:33N 32°01' W 080°53'0 0.0
2016-Aug-21 10:33N 32°01' W 080°53'0 0.0
2016-Aug-21 09:33N 32°01' W 080°53'0 0.3
2016-Aug-21 08:33N 32°01' W 080°53'0 0.1
2016-Aug-21 07:33N 32°01' W 080°53'0 0.0
2016-Aug-21 06:33N 32°01' W 080°53'0 0.0
2016-Aug-21 05:33N 32°01' W 080°53'0 0.0
2016-Aug-21 04:33N 32°01' W 080°53'0 0.0
2016-Aug-21 03:33N 32°01' W 080°53'0 0.0
2016-Aug-21 02:33N 32°01' W 080°53'0 0.0
2016-Aug-21 01:33N 32°01' W 080°53'0 0.0
2016-Aug-21 00:33N 32°01' W 080°53'0 0.0
2016-Aug-20 23:33N 32°01' W 080°53'0 0.4
2016-Aug-20 22:33N 32°01' W 080°53'0 0.0
2016-Aug-20 21:33N 32°01' W 080°53'0 0.0
2016-Aug-20 20:32N 32°01' W 080°53'0 0.4
2016-Aug-20 19:33N 32°01' W 080°53'0 0.0
2016-Aug-20 18:33N 32°01' W 080°53'0 0.0
2016-Aug-20 17:33N 32°01' W 080°53'0 0.1
2016-Aug-20 16:33N 32°01' W 080°53'0 0.0
2016-Aug-20 15:33N 32°01' W 080°53'0 0.1
2016-Aug-20 14:33N 32°01' W 080°53'0 0.0
2016-Aug-20 13:33N 32°01' W 080°53'0 0.0
2016-Aug-20 12:33N 32°01' W 080°53'0 0.0
2016-Aug-20 11:33N 32°01' W 080°53'0 0.0
2016-Aug-20 10:33N 32°01' W 080°53'0 0.4
2016-Aug-20 09:33N 32°01' W 080°53'0 0.4
2016-Aug-20 08:33N 32°01' W 080°53'0 0.0
2016-Aug-20 07:33N 32°01' W 080°53'0 0.0
2016-Aug-20 06:33N 32°01' W 080°53'0 0.0
2016-Aug-20 05:33N 32°01' W 080°53'0 0.0
2016-Aug-20 04:33N 32°01' W 080°53'0 0.0
2016-Aug-20 03:33N 32°01' W 080°53'0 0.0
2016-Aug-20 02:33N 32°01' W 080°53'0 0.0
2016-Aug-20 01:33N 32°01' W 080°53'0 0.0
2016-Aug-20 00:33N 32°01' W 080°53'0 0.3
2016-Aug-19 23:33N 32°01' W 080°53'0 0.0
2016-Aug-19 22:33N 32°01' W 080°53'0 0.2
2016-Aug-19 21:33N 32°01' W 080°53'0 0.2
2016-Aug-19 20:33N 32°01' W 080°53'0 0.0
2016-Aug-19 19:33N 32°01' W 080°53'0 0.0
2016-Aug-19 18:33N 32°01' W 080°53'0 0.0
2016-Aug-19 17:33N 32°01' W 080°53'0 0.0
2016-Aug-19 16:33N 32°01' W 080°53'0 0.0
2016-Aug-19 15:33N 32°01' W 080°53'0 0.0
2016-Aug-19 14:33N 32°01' W 080°53'0 0.0
2016-Aug-19 13:33N 32°01' W 080°53'0 0.0
2016-Aug-19 12:33N 32°01' W 080°53'0 0.0
2016-Aug-19 11:33N 32°01' W 080°53'0 0.0
2016-Aug-19 10:33N 32°01' W 080°53'0 0.0
2016-Aug-19 09:33N 32°01' W 080°53'0 0.3
2016-Aug-19 08:33N 32°01' W 080°53'0 0.0
2016-Aug-19 07:33N 32°01' W 080°53'0 0.0
2016-Aug-19 06:33N 32°01' W 080°53'0 0.3
2016-Aug-19 05:33N 32°01' W 080°53'0 0.0
2016-Aug-19 04:33N 32°01' W 080°53'0 0.3
2016-Aug-19 03:33N 32°01' W 080°53'0 0.0
2016-Aug-19 02:33N 32°01' W 080°53'0 0.0
2016-Aug-19 01:33N 32°01' W 080°53'0 0.0
2016-Aug-19 00:33N 32°01' W 080°53'0 0.3
2016-Aug-18 23:33N 32°01' W 080°53'0 0.0
2016-Aug-18 22:33N 32°01' W 080°53'0 0.0
2016-Aug-18 21:33N 32°01' W 080°53'0 0.0
2016-Aug-18 20:33N 32°01' W 080°53'0 0.0
2016-Aug-18 19:33N 32°01' W 080°53'0 0.0
2016-Aug-18 18:33N 32°01' W 080°53'0 0.0
2016-Aug-18 17:33N 32°01' W 080°53'0 0.0
2016-Aug-18 16:33N 32°01' W 080°53'0 0.2
2016-Aug-18 15:33N 32°01' W 080°53'0 0.4
2016-Aug-18 14:33N 32°01' W 080°53'0 0.4
2016-Aug-18 13:33N 32°01' W 080°53'0 0.0
2016-Aug-18 12:33N 32°01' W 080°53'0 0.0
2016-Aug-18 11:33N 32°01' W 080°53'0 0.0
2016-Aug-18 10:33N 32°01' W 080°53'0 0.0
2016-Aug-18 09:33N 32°01' W 080°53'0 0.3
2016-Aug-18 08:33N 32°01' W 080°53'0 0.0
2016-Aug-18 07:34N 32°01' W 080°53'0 0.0
2016-Aug-18 06:25N 32°01' W 080°53'0 0.0
2016-Aug-18 05:29N 32°01' W 080°53'0 0.0
2016-Aug-18 04:33N 32°01' W 080°53'0 0.0
2016-Aug-18 03:33N 32°01' W 080°53'0 0.0
2016-Aug-18 02:33N 32°01' W 080°53'0 0.0
2016-Aug-18 01:32N 32°01' W 080°53'0 0.0
2016-Aug-18 00:33N 32°01' W 080°53'0 0.3
2016-Aug-17 23:33N 32°01' W 080°53'0 0.0
2016-Aug-17 22:33N 32°01' W 080°53'0 0.0
2016-Aug-17 21:33N 32°01' W 080°53'0 0.0
2016-Aug-17 20:33N 32°01' W 080°53'0 0.0
2016-Aug-17 19:33N 32°01' W 080°53'0 0.0
2016-Aug-17 18:33N 32°01' W 080°53'0 0.0
2016-Aug-17 17:33N 32°01' W 080°53'0 0.0
2016-Aug-17 16:33N 32°01' W 080°53'0 0.2
2016-Aug-17 15:33N 32°01' W 080°53'0 0.2
2016-Aug-17 14:33N 32°01' W 080°53'5 5.1
2016-Aug-17 13:34N 31°60' W 080°47'0 0.2
2016-Aug-17 12:34N 31°60' W 080°47'0 0.1
2016-Aug-17 11:32N 31°60' W 080°47'0 0.1
2016-Aug-17 10:34N 31°60' W 080°47'0 0.0
2016-Aug-17 09:33N 31°60' W 080°47'0 0.0
2016-Aug-17 08:33N 31°60' W 080°47'0 0.0
2016-Aug-17 07:17N 31°60' W 080°47'0 0.1
2016-Aug-17 06:32N 31°60' W 080°47'0 0.0
2016-Aug-17 05:31N 31°60' W 080°47'0 0.0
2016-Aug-17 04:28N 31°60' W 080°47'0 0.0
2016-Aug-17 03:32N 31°60' W 080°47'0 0.0
2016-Aug-17 02:30N 31°60' W 080°47'0 0.0
2016-Aug-17 01:26N 31°60' W 080°47'0 0.0
2016-Aug-17 00:34N 31°60' W 080°47'0 0.1
2016-Aug-16 23:32N 31°60' W 080°47'0 0.0
2016-Aug-16 22:33N 31°60' W 080°47'0 0.0
2016-Aug-16 21:33N 31°60' W 080°47'0 0.0
2016-Aug-16 20:33N 31°60' W 080°47'0 0.4
2016-Aug-16 19:34N 31°59' W 080°47'0 0.3
2016-Aug-16 18:34N 31°60' W 080°47'0 0.3
2016-Aug-16 17:33N 31°60' W 080°47'0 0.2
2016-Aug-16 16:33N 31°60' W 080°47'0 0.1
2016-Aug-16 15:33N 31°60' W 080°47'0 0.0
2016-Aug-16 14:33N 31°60' W 080°47'0 0.4
2016-Aug-16 13:33N 32°00' W 080°47'0 0.4
2016-Aug-16 12:30N 31°60' W 080°47'0 0.0
2016-Aug-16 11:29N 31°60' W 080°47'0 0.0
2016-Aug-16 10:32N 31°60' W 080°47'0 0.0
2016-Aug-16 09:32N 31°60' W 080°47'0 0.0
2016-Aug-16 08:32N 31°60' W 080°47'0 0.2
2016-Aug-16 07:33N 31°60' W 080°47'0 0.1
2016-Aug-16 04:33N 31°60' W 080°47'0 0.1
2016-Aug-16 03:33N 31°60' W 080°47'0 0.1
2016-Aug-16 02:32N 31°60' W 080°47'0 0.0
2016-Aug-16 01:29N 31°60' W 080°47'0 0.0
2016-Aug-16 00:33N 31°60' W 080°47'0 0.0
2016-Aug-15 23:33N 31°60' W 080°47'0 0.0
2016-Aug-15 22:33N 31°60' W 080°47'0 0.0
2016-Aug-15 21:33N 31°60' W 080°47'0 0.0
2016-Aug-15 20:28N 31°60' W 080°47'0 0.1
2016-Aug-15 19:34N 31°60' W 080°47'0 0.3
2016-Aug-15 18:34N 31°60' W 080°47'0 0.2
2016-Aug-15 17:34N 31°60' W 080°47'1 0.8
2016-Aug-15 16:33N 32°00' W 080°48'0 0.2
2016-Aug-15 15:32N 32°00' W 080°48'0 0.2
2016-Aug-15 14:33N 32°00' W 080°47'0 0.2
2016-Aug-15 13:34N 32°00' W 080°48'0 0.2
2016-Aug-15 12:34N 32°00' W 080°48'0 0.1
2016-Aug-15 11:32N 32°00' W 080°47'0 0.2
2016-Aug-15 10:30N 32°00' W 080°48'0 0.0
2016-Aug-15 09:34N 32°00' W 080°48'  
Track history (hours):
 
Tides and Currents Weather Stations Pressure Air Temp Water Temp Dewpoint Dewpoint Depression Visibility Wind Speed Wind Dir Waves Ship Positions

R.l. Enterkin

Owner: Great Lakes Dredge & Dock Company, LLC., Oak Brook, IL. More information available from US FCC via Universal Licensing System and Coast Guard Vessel Documentation Center.

Last reported at 2016-Aug-25 09:10 UTC. Time now 2016-Sep-25 19:07 UTC.
Position N 32°05' W 080°38'.
Warning: this ship's position is 31 days out of date.

MMSI: 367314080.

Date/timePositionNaut miles runAvg speedWind from/ knotsBaromVisibWave heightAir tempDewpointWater temp
2016-Aug-25 09:10N 32°05' W 080°38'5 7.8
2016-Aug-25 08:33N 32°02' W 080°43'6 5.9
2016-Aug-25 07:33N 32°02' W 080°50'3 3.3
2016-Aug-25 06:33N 32°01' W 080°53'0 0.0
2016-Aug-25 04:33N 32°01' W 080°53'0 0.1
2016-Aug-25 03:33N 32°01' W 080°53'0 0.0
2016-Aug-25 02:33N 32°01' W 080°53'0 0.0
2016-Aug-25 01:33N 32°01' W 080°53'0 0.0
2016-Aug-25 00:31N 32°01' W 080°53'0 0.0
2016-Aug-24 23:33N 32°01' W 080°53'0 0.5
2016-Aug-24 22:34N 32°01' W 080°53'0 0.3
2016-Aug-24 21:34N 32°01' W 080°53'0 0.0
2016-Aug-24 20:33N 32°01' W 080°53'0 0.4
2016-Aug-24 19:34N 32°01' W 080°53'0 0.1
2016-Aug-24 18:33N 32°01' W 080°53'0 0.0
2016-Aug-24 17:33N 32°01' W 080°53'0 0.0
2016-Aug-24 16:33N 32°01' W 080°53'0 0.0
2016-Aug-24 15:33N 32°01' W 080°53'0 0.0
2016-Aug-24 14:33N 32°01' W 080°53'0 0.0
2016-Aug-24 13:33N 32°01' W 080°53'0 0.0
2016-Aug-24 12:33N 32°01' W 080°53'0 0.0
2016-Aug-24 11:30N 32°01' W 080°53'0 0.0
2016-Aug-24 10:31N 32°01' W 080°53'0 0.0
2016-Aug-24 09:32N 32°01' W 080°53'0 0.0
2016-Aug-24 08:32N 32°01' W 080°53'0 0.0
2016-Aug-24 07:13N 32°01' W 080°53'0 0.0
2016-Aug-24 06:29N 32°01' W 080°53'0 0.0
2016-Aug-24 04:33N 32°01' W 080°53'0 0.0
2016-Aug-24 03:33N 32°01' W 080°53'0 0.0
2016-Aug-24 02:33N 32°01' W 080°53'0 0.0
2016-Aug-24 01:33N 32°01' W 080°53'0 0.0
2016-Aug-24 00:33N 32°01' W 080°53'0 0.0
2016-Aug-23 23:33N 32°01' W 080°53'0 0.0
2016-Aug-23 22:32N 32°01' W 080°53'0 0.0
2016-Aug-23 21:33N 32°01' W 080°53'0 0.0
2016-Aug-23 20:33N 32°01' W 080°53'0 0.0
2016-Aug-23 19:33N 32°01' W 080°53'0 0.0
2016-Aug-23 18:33N 32°01' W 080°53'0 0.0
2016-Aug-23 17:34N 32°01' W 080°53'0 0.1
2016-Aug-23 16:33N 32°01' W 080°53'0 0.0
2016-Aug-23 15:33N 32°01' W 080°53'1 1.3
2016-Aug-23 14:33N 32°01' W 080°52'1 1.4
2016-Aug-23 13:33N 32°02' W 080°51'2 1.5
2016-Aug-23 12:33N 32°01' W 080°52'1 1.1
2016-Aug-23 11:33N 32°01' W 080°53'0 0.0
2016-Aug-23 10:33N 32°01' W 080°53'0 0.4
2016-Aug-23 09:33N 32°01' W 080°53'0 0.4
2016-Aug-23 08:33N 32°01' W 080°53'0 0.0
2016-Aug-23 07:33N 32°01' W 080°53'0 0.0
2016-Aug-23 06:33N 32°01' W 080°53'0 0.0
2016-Aug-23 05:33N 32°01' W 080°53'0 0.0
2016-Aug-23 04:33N 32°01' W 080°53'0 0.0
2016-Aug-23 03:33N 32°01' W 080°53'0 0.0
2016-Aug-23 02:33N 32°01' W 080°53'0 0.0
2016-Aug-23 01:33N 32°01' W 080°53'0 0.0
2016-Aug-23 00:33N 32°01' W 080°53'0 0.4
2016-Aug-22 23:33N 32°01' W 080°53'0 0.0
2016-Aug-22 22:33N 32°01' W 080°53'0 0.0
2016-Aug-22 21:33N 32°01' W 080°53'0 0.0
2016-Aug-22 20:33N 32°01' W 080°53'0 0.0
2016-Aug-22 19:34N 32°01' W 080°53'0 0.4
2016-Aug-22 18:33N 32°01' W 080°53'0 0.0
2016-Aug-22 17:33N 32°01' W 080°53'0 0.0
2016-Aug-22 16:33N 32°01' W 080°53'0 0.0
2016-Aug-22 15:33N 32°01' W 080°53'0 0.4
2016-Aug-22 14:33N 32°01' W 080°53'0 0.3
2016-Aug-22 13:33N 32°01' W 080°53'0 0.0
2016-Aug-22 12:33N 32°01' W 080°53'0 0.2
2016-Aug-22 11:33N 32°01' W 080°53'0 0.4
2016-Aug-22 10:33N 32°01' W 080°53'0 0.4
2016-Aug-22 09:33N 32°01' W 080°53'0 0.3
2016-Aug-22 08:34N 32°01' W 080°53'0 0.0
2016-Aug-22 07:33N 32°01' W 080°53'0 0.0
2016-Aug-22 06:34N 32°01' W 080°53'0 0.0
2016-Aug-22 05:33N 32°01' W 080°53'0 0.0
2016-Aug-22 04:33N 32°01' W 080°53'0 0.0
2016-Aug-22 03:34N 32°01' W 080°53'0 0.0
2016-Aug-22 02:34N 32°01' W 080°53'0 0.0
2016-Aug-22 01:33N 32°01' W 080°53'0 0.0
2016-Aug-22 00:33N 32°01' W 080°53'0 0.0
2016-Aug-21 23:33N 32°01' W 080°53'0 0.3
2016-Aug-21 22:33N 32°01' W 080°53'0 0.0
2016-Aug-21 21:33N 32°01' W 080°53'0 0.0
2016-Aug-21 20:33N 32°01' W 080°53'0 0.0
2016-Aug-21 19:33N 32°01' W 080°53'0 0.4
2016-Aug-21 18:33N 32°01' W 080°53'0 0.4
2016-Aug-21 17:33N 32°01' W 080°53'0 0.3
2016-Aug-21 16:33N 32°01' W 080°53'0 0.1
2016-Aug-21 15:34N 32°01' W 080°53'0 0.0
2016-Aug-21 14:33N 32°01' W 080°53'0 0.0
2016-Aug-21 13:33N 32°01' W 080°53'0 0.0
2016-Aug-21 12:33N 32°01' W 080°53'0 0.4
2016-Aug-21 11:33N 32°01' W 080°53'0 0.0
2016-Aug-21 10:33N 32°01' W 080°53'0 0.0
2016-Aug-21 09:33N 32°01' W 080°53'0 0.3
2016-Aug-21 08:33N 32°01' W 080°53'0 0.1
2016-Aug-21 07:33N 32°01' W 080°53'0 0.0
2016-Aug-21 06:33N 32°01' W 080°53'0 0.0
2016-Aug-21 05:33N 32°01' W 080°53'0 0.0
2016-Aug-21 04:33N 32°01' W 080°53'0 0.0
2016-Aug-21 03:33N 32°01' W 080°53'0 0.0
2016-Aug-21 02:33N 32°01' W 080°53'0 0.0
2016-Aug-21 01:33N 32°01' W 080°53'0 0.0
2016-Aug-21 00:33N 32°01' W 080°53'0 0.0
2016-Aug-20 23:33N 32°01' W 080°53'0 0.4
2016-Aug-20 22:33N 32°01' W 080°53'0 0.0
2016-Aug-20 21:33N 32°01' W 080°53'0 0.0
2016-Aug-20 20:32N 32°01' W 080°53'0 0.4
2016-Aug-20 19:33N 32°01' W 080°53'0 0.0
2016-Aug-20 18:33N 32°01' W 080°53'0 0.0
2016-Aug-20 17:33N 32°01' W 080°53'0 0.1
2016-Aug-20 16:33N 32°01' W 080°53'0 0.0
2016-Aug-20 15:33N 32°01' W 080°53'0 0.1
2016-Aug-20 14:33N 32°01' W 080°53'0 0.0
2016-Aug-20 13:33N 32°01' W 080°53'0 0.0
2016-Aug-20 12:33N 32°01' W 080°53'0 0.0
2016-Aug-20 11:33N 32°01' W 080°53'0 0.0
2016-Aug-20 10:33N 32°01' W 080°53'0 0.4
2016-Aug-20 09:33N 32°01' W 080°53'0 0.4
2016-Aug-20 08:33N 32°01' W 080°53'0 0.0
2016-Aug-20 07:33N 32°01' W 080°53'0 0.0
2016-Aug-20 06:33N 32°01' W 080°53'0 0.0
2016-Aug-20 05:33N 32°01' W 080°53'0 0.0
2016-Aug-20 04:33N 32°01' W 080°53'0 0.0
2016-Aug-20 03:33N 32°01' W 080°53'0 0.0
2016-Aug-20 02:33N 32°01' W 080°53'0 0.0
2016-Aug-20 01:33N 32°01' W 080°53'0 0.0
2016-Aug-20 00:33N 32°01' W 080°53'0 0.3
2016-Aug-19 23:33N 32°01' W 080°53'0 0.0
2016-Aug-19 22:33N 32°01' W 080°53'0 0.2
2016-Aug-19 21:33N 32°01' W 080°53'0 0.2
2016-Aug-19 20:33N 32°01' W 080°53'0 0.0
2016-Aug-19 19:33N 32°01' W 080°53'0 0.0
2016-Aug-19 18:33N 32°01' W 080°53'0 0.0
2016-Aug-19 17:33N 32°01' W 080°53'0 0.0
2016-Aug-19 16:33N 32°01' W 080°53'0 0.0
2016-Aug-19 15:33N 32°01' W 080°53'0 0.0
2016-Aug-19 14:33N 32°01' W 080°53'0 0.0
2016-Aug-19 13:33N 32°01' W 080°53'0 0.0
2016-Aug-19 12:33N 32°01' W 080°53'0 0.0
2016-Aug-19 11:33N 32°01' W 080°53'0 0.0
2016-Aug-19 10:33N 32°01' W 080°53'0 0.0
2016-Aug-19 09:33N 32°01' W 080°53'0 0.3
2016-Aug-19 08:33N 32°01' W 080°53'0 0.0
2016-Aug-19 07:33N 32°01' W 080°53'0 0.0
2016-Aug-19 06:33N 32°01' W 080°53'0 0.3
2016-Aug-19 05:33N 32°01' W 080°53'0 0.0
2016-Aug-19 04:33N 32°01' W 080°53'0 0.3
2016-Aug-19 03:33N 32°01' W 080°53'0 0.0
2016-Aug-19 02:33N 32°01' W 080°53'0 0.0
2016-Aug-19 01:33N 32°01' W 080°53'0 0.0
2016-Aug-19 00:33N 32°01' W 080°53'0 0.3
2016-Aug-18 23:33N 32°01' W 080°53'0 0.0
2016-Aug-18 22:33N 32°01' W 080°53'0 0.0
2016-Aug-18 21:33N 32°01' W 080°53'0 0.0
2016-Aug-18 20:33N 32°01' W 080°53'0 0.0
2016-Aug-18 19:33N 32°01' W 080°53'0 0.0
2016-Aug-18 18:33N 32°01' W 080°53'0 0.0
2016-Aug-18 17:33N 32°01' W 080°53'0 0.0
2016-Aug-18 16:33N 32°01' W 080°53'0 0.2
2016-Aug-18 15:33N 32°01' W 080°53'0 0.4
2016-Aug-18 14:33N 32°01' W 080°53'0 0.4
2016-Aug-18 13:33N 32°01' W 080°53'0 0.0
2016-Aug-18 12:33N 32°01' W 080°53'0 0.0
2016-Aug-18 11:33N 32°01' W 080°53'0 0.0
2016-Aug-18 10:33N 32°01' W 080°53'0 0.0
2016-Aug-18 09:33N 32°01' W 080°53'0 0.3
2016-Aug-18 08:33N 32°01' W 080°53'0 0.0
2016-Aug-18 07:34N 32°01' W 080°53'0 0.0
2016-Aug-18 06:25N 32°01' W 080°53'0 0.0
2016-Aug-18 05:29N 32°01' W 080°53'0 0.0
2016-Aug-18 04:33N 32°01' W 080°53'0 0.0
2016-Aug-18 03:33N 32°01' W 080°53'0 0.0
2016-Aug-18 02:33N 32°01' W 080°53'0 0.0
2016-Aug-18 01:32N 32°01' W 080°53'0 0.0
2016-Aug-18 00:33N 32°01' W 080°53'0 0.3
2016-Aug-17 23:33N 32°01' W 080°53'0 0.0
2016-Aug-17 22:33N 32°01' W 080°53'0 0.0
2016-Aug-17 21:33N 32°01' W 080°53'0 0.0
2016-Aug-17 20:33N 32°01' W 080°53'0 0.0
2016-Aug-17 19:33N 32°01' W 080°53'0 0.0
2016-Aug-17 18:33N 32°01' W 080°53'0 0.0
2016-Aug-17 17:33N 32°01' W 080°53'0 0.0
2016-Aug-17 16:33N 32°01' W 080°53'0 0.2
2016-Aug-17 15:33N 32°01' W 080°53'0 0.2
2016-Aug-17 14:33N 32°01' W 080°53'5 5.1
2016-Aug-17 13:34N 31°60' W 080°47'0 0.2
2016-Aug-17 12:34N 31°60' W 080°47'0 0.1
2016-Aug-17 11:32N 31°60' W 080°47'0 0.1
2016-Aug-17 10:34N 31°60' W 080°47'0 0.0
2016-Aug-17 09:33N 31°60' W 080°47'0 0.0
2016-Aug-17 08:33N 31°60' W 080°47'0 0.0
2016-Aug-17 07:17N 31°60' W 080°47'0 0.1
2016-Aug-17 06:32N 31°60' W 080°47'0 0.0
2016-Aug-17 05:31N 31°60' W 080°47'0 0.0
2016-Aug-17 04:28N 31°60' W 080°47'0 0.0
2016-Aug-17 03:32N 31°60' W 080°47'0 0.0
2016-Aug-17 02:30N 31°60' W 080°47'0 0.0
2016-Aug-17 01:26N 31°60' W 080°47'0 0.0
2016-Aug-17 00:34N 31°60' W 080°47'0 0.1
2016-Aug-16 23:32N 31°60' W 080°47'0 0.0
2016-Aug-16 22:33N 31°60' W 080°47'0 0.0
2016-Aug-16 21:33N 31°60' W 080°47'0 0.0
2016-Aug-16 20:33N 31°60' W 080°47'0 0.4
2016-Aug-16 19:34N 31°59' W 080°47'0 0.3
2016-Aug-16 18:34N 31°60' W 080°47'0 0.3
2016-Aug-16 17:33N 31°60' W 080°47'0 0.2
2016-Aug-16 16:33N 31°60' W 080°47'0 0.1
2016-Aug-16 15:33N 31°60' W 080°47'0 0.0
2016-Aug-16 14:33N 31°60' W 080°47'0 0.4
2016-Aug-16 13:33N 32°00' W 080°47'0 0.4
2016-Aug-16 12:30N 31°60' W 080°47'0 0.0
2016-Aug-16 11:29N 31°60' W 080°47'0 0.0
2016-Aug-16 10:32N 31°60' W 080°47'0 0.0
2016-Aug-16 09:32N 31°60' W 080°47'0 0.0
2016-Aug-16 08:32N 31°60' W 080°47'0 0.2
2016-Aug-16 07:33N 31°60' W 080°47'0 0.1
2016-Aug-16 04:33N 31°60' W 080°47'0 0.1
2016-Aug-16 03:33N 31°60' W 080°47'0 0.1
2016-Aug-16 02:32N 31°60' W 080°47'0 0.0
2016-Aug-16 01:29N 31°60' W 080°47'0 0.0
2016-Aug-16 00:33N 31°60' W 080°47'0 0.0
2016-Aug-15 23:33N 31°60' W 080°47'0 0.0
2016-Aug-15 22:33N 31°60' W 080°47'0 0.0
2016-Aug-15 21:33N 31°60' W 080°47'0 0.0
2016-Aug-15 20:28N 31°60' W 080°47'0 0.1
2016-Aug-15 19:34N 31°60' W 080°47'0 0.3
2016-Aug-15 18:34N 31°60' W 080°47'0 0.2
2016-Aug-15 17:34N 31°60' W 080°47'1 0.8
2016-Aug-15 16:33N 32°00' W 080°48'0 0.2
2016-Aug-15 15:32N 32°00' W 080°48'0 0.2
2016-Aug-15 14:33N 32°00' W 080°47'0 0.2
2016-Aug-15 13:34N 32°00' W 080°48'0 0.2
2016-Aug-15 12:34N 32°00' W 080°48'0 0.1
2016-Aug-15 11:32N 32°00' W 080°47'0 0.2
2016-Aug-15 10:30N 32°00' W 080°48'0 0.0
2016-Aug-15 09:34N 32°00' W 080°48'  

Dump ship's entire track history